Time;durP1;ratioP1;P1;durP2;ratioP2;P2;SDS_P1;SDS_P2;PMS_P1;PMS_P2;Temp;Humidity;BMP_temperature;BMP_pressure;BME280_temperature;BME280_humidity;BME280_pressure;Samples;Min_cycle;Max_cycle;Signal;HPM_P1;HPM_P2
2023/09/23 00:00:59;;;;;;;1.67;0.90;;;;;;;;;;5093084;28;20056;-59
2023/09/23 00:03:30;;;;;;;1.85;0.90;;;;;;;;;;5075304;28;20056;-59
2023/09/23 00:05:56;;;;;;;2.20;0.85;;;;;;;;;;5072449;28;20048;-58
2023/09/23 00:08:23;;;;;;;2.60;1.35;;;;;;;;;;5083004;28;20052;-58
2023/09/23 00:10:50;;;;;;;2.05;1.20;;;;;;;;;;5092989;28;20067;-58
2023/09/23 00:13:17;;;;;;;1.85;1.00;;;;;;;;;;5075509;28;20055;-59
2023/09/23 00:15:44;;;;;;;1.27;0.80;;;;;;;;;;5072893;28;20432;-59
2023/09/23 00:18:17;;;;;;;1.75;0.90;;;;;;;;;;5073211;28;20056;-59
2023/09/23 00:20:44;;;;;;;1.85;1.20;;;;;;;;;;5072537;28;20052;-58
2023/09/23 00:23:13;;;;;;;2.10;1.00;;;;;;;;;;5072862;28;20063;-58
2023/09/23 00:25:46;;;;;;;2.15;1.20;;;;;;;;;;5072350;28;20048;-59
2023/09/23 00:28:14;;;;;;;2.25;1.10;;;;;;;;;;5073531;28;20052;-58
2023/09/23 00:30:41;;;;;;;1.60;0.88;;;;;;;;;;5092616;28;20064;-58
2023/09/23 00:33:10;;;;;;;1.90;1.00;;;;;;;;;;5078342;28;20052;-58
2023/09/23 00:35:41;;;;;;;3.75;1.15;;;;;;;;;;5072234;28;20057;-58
2023/09/23 00:38:11;;;;;;;2.65;1.38;;;;;;;;;;5072662;28;20064;-58
2023/09/23 00:40:38;;;;;;;2.10;1.10;;;;;;;;;;5092373;28;20056;-58
2023/09/23 00:43:11;;;;;;;3.92;1.80;;;;;;;;;;5092622;28;20074;-58
2023/09/23 00:45:39;;;;;;;2.97;1.60;;;;;;;;;;5092844;28;20052;-58
2023/09/23 00:48:09;;;;;;;2.17;1.52;;;;;;;;;;5092866;28;20063;-59
2023/09/23 00:50:36;;;;;;;2.03;1.55;;;;;;;;;;5072150;28;20053;-59
2023/09/23 00:53:06;;;;;;;5.13;1.42;;;;;;;;;;5072621;28;20060;-59
2023/09/23 00:55:40;;;;;;;2.35;1.60;;;;;;;;;;5076203;28;20055;-59
2023/09/23 00:58:07;;;;;;;2.90;1.70;;;;;;;;;;5093109;28;20390;-59
2023/09/23 01:00:37;;;;;;;2.80;1.80;;;;;;;;;;5090941;28;20052;-59
2023/09/23 01:03:06;;;;;;;2.63;1.48;;;;;;;;;;5089407;28;20056;-59
2023/09/23 01:05:37;;;;;;;2.72;1.65;;;;;;;;;;5087140;28;20048;-59
2023/09/23 01:08:18;;;;;;;2.17;1.48;;;;;;;;;;5072531;28;20055;-58
2023/09/23 01:10:45;;;;;;;2.28;1.58;;;;;;;;;;5072225;28;20512;-59
2023/09/23 01:13:12;;;;;;;5.68;2.05;;;;;;;;;;5071832;28;20059;-59
2023/09/23 01:15:46;;;;;;;2.72;1.65;;;;;;;;;;5072519;28;20131;-58
2023/09/23 01:18:24;;;;;;;2.55;1.20;;;;;;;;;;5074073;28;20063;-58
2023/09/23 01:20:56;;;;;;;2.08;1.00;;;;;;;;;;5075478;28;20055;-58
2023/09/23 01:23:24;;;;;;;2.30;1.42;;;;;;;;;;5076519;28;20413;-58
2023/09/23 01:25:51;;;;;;;1.85;1.20;;;;;;;;;;5075647;28;20048;-59
2023/09/23 01:28:18;;;;;;;2.78;1.40;;;;;;;;;;5075882;28;20049;-59
2023/09/23 01:30:45;;;;;;;2.22;1.10;;;;;;;;;;5075732;28;20113;-59
2023/09/23 01:33:13;;;;;;;2.00;1.10;;;;;;;;;;5076688;28;20048;-58
2023/09/23 01:35:40;;;;;;;2.05;1.30;;;;;;;;;;5075424;28;20504;-59
2023/09/23 01:38:07;;;;;;;2.10;1.50;;;;;;;;;;5075861;28;20063;-59
2023/09/23 01:40:36;;;;;;;4.32;1.60;;;;;;;;;;5075345;28;20059;-58
2023/09/23 01:43:03;;;;;;;1.98;1.25;;;;;;;;;;5075889;28;20052;-59
2023/09/23 01:45:31;;;;;;;1.58;1.00;;;;;;;;;;5075019;28;20048;-59
2023/09/23 01:47:58;;;;;;;3.03;1.02;;;;;;;;;;5075815;28;20493;-59
2023/09/23 01:50:26;;;;;;;2.58;1.17;;;;;;;;;;5075555;28;20056;-60
2023/09/23 01:52:54;;;;;;;1.88;1.00;;;;;;;;;;5075193;28;20052;-58
2023/09/23 01:55:21;;;;;;;1.73;0.93;;;;;;;;;;5075444;28;20056;-58
2023/09/23 01:57:49;;;;;;;2.53;1.48;;;;;;;;;;5075413;28;20052;-59
2023/09/23 02:00:18;;;;;;;1.63;0.95;;;;;;;;;;5074962;28;20052;-59
2023/09/23 02:02:45;;;;;;;1.88;1.17;;;;;;;;;;5079531;28;20047;-59
2023/09/23 02:05:13;;;;;;;1.85;1.33;;;;;;;;;;5095088;28;20052;-59
2023/09/23 02:07:41;;;;;;;2.20;0.90;;;;;;;;;;5092548;28;20411;-59
2023/09/23 02:10:09;;;;;;;2.45;0.90;;;;;;;;;;5074828;28;20420;-59
2023/09/23 02:12:35;;;;;;;1.58;0.90;;;;;;;;;;5074965;28;20405;-58
2023/09/23 02:15:06;;;;;;;1.67;0.90;;;;;;;;;;5074680;28;20056;-59
2023/09/23 02:17:36;;;;;;;1.65;1.00;;;;;;;;;;5072528;28;20052;-58
2023/09/23 02:20:05;;;;;;;1.92;0.90;;;;;;;;;;5074409;28;20056;-59
2023/09/23 02:22:32;;;;;;;2.15;1.48;;;;;;;;;;5075018;28;20401;-59
2023/09/23 02:24:59;;;;;;;1.67;1.02;;;;;;;;;;5074790;28;20053;-58
2023/09/23 02:27:26;;;;;;;2.30;1.25;;;;;;;;;;5074964;28;20052;-59
2023/09/23 02:29:53;;;;;;;2.17;1.52;;;;;;;;;;5073613;28;20057;-59
2023/09/23 02:32:27;;;;;;;2.33;1.42;;;;;;;;;;5074726;28;20044;-58
2023/09/23 02:34:54;;;;;;;2.00;1.48;;;;;;;;;;5074521;28;20055;-59
2023/09/23 02:37:26;;;;;;;2.35;1.42;;;;;;;;;;5074578;28;20044;-58
2023/09/23 02:39:53;;;;;;;2.50;1.58;;;;;;;;;;5074476;28;20052;-59
2023/09/23 02:42:21;;;;;;;3.38;1.90;;;;;;;;;;5074663;28;20052;-59
2023/09/23 02:44:49;;;;;;;2.38;1.30;;;;;;;;;;5074030;28;20060;-59
2023/09/23 02:47:21;;;;;;;2.42;1.40;;;;;;;;;;5074315;28;20053;-59
2023/09/23 02:49:50;;;;;;;2.72;1.30;;;;;;;;;;5074217;28;20067;-59
2023/09/23 02:52:21;;;;;;;2.22;1.60;;;;;;;;;;5074418;28;20493;-60
2023/09/23 02:54:53;;;;;;;3.08;1.63;;;;;;;;;;5093599;28;20067;-59
2023/09/23 02:57:22;;;;;;;2.05;1.50;;;;;;;;;;5094710;28;20052;-59
2023/09/23 02:59:56;;;;;;;3.15;2.38;;;;;;;;;;5094592;28;20059;-59
2023/09/23 03:02:30;;;;;;;2.22;1.48;;;;;;;;;;5093683;28;20505;-59
2023/09/23 03:05:07;;;;;;;2.42;1.95;;;;;;;;;;5074013;28;20061;-59
2023/09/23 03:07:35;;;;;;;2.83;1.98;;;;;;;;;;5073352;28;20044;-59
2023/09/23 03:10:09;;;;;;;3.28;1.75;;;;;;;;;;5073360;28;20048;-59
2023/09/23 03:12:40;;;;;;;3.47;2.00;;;;;;;;;;5073466;28;20413;-59
2023/09/23 03:15:14;;;;;;;3.75;2.13;;;;;;;;;;5073474;28;20059;-59
2023/09/23 03:17:42;;;;;;;4.75;2.35;;;;;;;;;;5073852;28;20052;-59
2023/09/23 03:20:14;;;;;;;3.33;2.00;;;;;;;;;;5089243;28;20074;-59
2023/09/23 03:22:40;;;;;;;3.15;1.98;;;;;;;;;;5092209;28;20412;-60
2023/09/23 03:25:08;;;;;;;3.97;2.38;;;;;;;;;;5073586;28;20131;-59
2023/09/23 03:27:38;;;;;;;6.05;2.40;;;;;;;;;;5073718;28;20048;-59
2023/09/23 03:30:12;;;;;;;3.63;2.13;;;;;;;;;;5073935;28;20071;-59
2023/09/23 03:32:39;;;;;;;3.10;1.80;;;;;;;;;;5073674;28;20056;-59
2023/09/23 03:35:08;;;;;;;3.60;2.30;;;;;;;;;;5073167;28;20063;-59
2023/09/23 03:37:37;;;;;;;5.13;2.15;;;;;;;;;;5073426;28;20390;-59
2023/09/23 03:40:07;;;;;;;4.03;2.40;;;;;;;;;;5077429;28;20490;-59
2023/09/23 03:42:34;;;;;;;6.53;1.95;;;;;;;;;;5092143;28;20063;-59
2023/09/23 03:45:08;;;;;;;5.30;2.20;;;;;;;;;;5089909;28;20059;-58
2023/09/23 03:47:36;;;;;;;2.75;1.83;;;;;;;;;;5092839;28;20401;-59
2023/09/23 03:50:04;;;;;;;3.28;1.67;;;;;;;;;;5093478;28;20074;-59
2023/09/23 03:52:32;;;;;;;3.88;1.98;;;;;;;;;;5093299;28;20374;-59
2023/09/23 03:55:00;;;;;;;4.47;2.38;;;;;;;;;;5074313;28;20052;-58
2023/09/23 03:57:37;;;;;;;3.10;2.38;;;;;;;;;;5072938;28;20049;-58
2023/09/23 04:00:14;;;;;;;3.90;2.35;;;;;;;;;;5072871;28;20060;-58
2023/09/23 04:02:42;;;;;;;4.57;2.63;;;;;;;;;;5073003;28;20075;-59
2023/09/23 04:05:09;;;;;;;4.15;2.03;;;;;;;;;;5092804;28;20056;-58
2023/09/23 04:07:39;;;;;;;4.63;2.47;;;;;;;;;;5093269;28;20048;-59
2023/09/23 04:10:10;;;;;;;3.15;2.53;;;;;;;;;;5073815;28;20170;-59
2023/09/23 04:12:42;;;;;;;3.35;1.98;;;;;;;;;;5073009;28;20071;-59
2023/09/23 04:15:09;;;;;;;3.40;2.30;;;;;;;;;;5071784;28;20055;-59
2023/09/23 04:17:38;;;;;;;5.20;2.17;;;;;;;;;;5072767;28;20489;-59
2023/09/23 04:20:09;;;;;;;4.35;2.20;;;;;;;;;;5072622;28;20068;-58
2023/09/23 04:22:37;;;;;;;3.80;2.40;;;;;;;;;;5072783;28;20052;-58
2023/09/23 04:25:05;;;;;;;6.35;1.80;;;;;;;;;;5072596;28;20052;-59
2023/09/23 04:27:34;;;;;;;3.08;1.90;;;;;;;;;;5072791;28;20052;-58
2023/09/23 04:30:09;;;;;;;6.00;2.42;;;;;;;;;;5071716;28;20064;-58
2023/09/23 04:32:36;;;;;;;2.78;1.70;;;;;;;;;;5072987;28;20064;-59
2023/09/23 04:35:05;;;;;;;3.72;2.20;;;;;;;;;;5072795;28;20052;-59
2023/09/23 04:37:36;;;;;;;4.43;2.20;;;;;;;;;;5072659;28;20049;-59
2023/09/23 04:40:05;;;;;;;5.35;1.92;;;;;;;;;;5072864;28;20053;-59
2023/09/23 04:42:34;;;;;;;2.83;1.98;;;;;;;;;;5072428;28;20053;-58
2023/09/23 04:45:03;;;;;;;3.25;2.08;;;;;;;;;;5072116;28;20128;-59
2023/09/23 04:47:30;;;;;;;4.25;1.83;;;;;;;;;;5072453;28;20492;-59
2023/09/23 04:49:58;;;;;;;3.83;2.20;;;;;;;;;;5072536;28;20064;-58
2023/09/23 04:52:30;;;;;;;2.50;1.63;;;;;;;;;;5073510;28;20405;-58
2023/09/23 04:54:57;;;;;;;2.72;1.58;;;;;;;;;;5076052;28;20068;-58
2023/09/23 04:57:24;;;;;;;2.08;1.40;;;;;;;;;;5076492;28;20052;-59
2023/09/23 04:59:54;;;;;;;3.00;1.85;;;;;;;;;;5076532;28;20048;-58
2023/09/23 05:02:25;;;;;;;6.47;2.05;;;;;;;;;;5076562;28;20056;-58
2023/09/23 05:04:53;;;;;;;3.13;2.03;;;;;;;;;;5076510;28;20048;-58
2023/09/23 05:07:20;;;;;;;2.78;1.80;;;;;;;;;;5076200;28;20052;-58
2023/09/23 05:09:47;;;;;;;2.03;1.50;;;;;;;;;;5074334;28;20516;-59
2023/09/23 05:12:14;;;;;;;4.03;1.40;;;;;;;;;;5079828;28;20493;-58
2023/09/23 05:14:42;;;;;;;3.22;1.65;;;;;;;;;;5080428;28;20048;-58
2023/09/23 05:17:14;;;;;;;3.10;1.40;;;;;;;;;;5096190;28;20051;-58
2023/09/23 05:19:40;;;;;;;2.30;1.20;;;;;;;;;;5096332;28;20507;-58
2023/09/23 05:22:08;;;;;;;11.80;1.88;;;;;;;;;;5090396;28;20052;-58
2023/09/23 05:24:35;;;;;;;8.18;1.40;;;;;;;;;;5078182;28;20052;-58
2023/09/23 05:27:02;;;;;;;3.97;1.75;;;;;;;;;;5075428;28;20044;-59
2023/09/23 05:29:29;;;;;;;2.83;1.60;;;;;;;;;;5075214;28;20063;-59
2023/09/23 05:31:56;;;;;;;2.47;1.40;;;;;;;;;;5076365;28;20049;-58
2023/09/23 05:34:25;;;;;;;2.97;1.60;;;;;;;;;;5075616;28;20048;-58
2023/09/23 05:36:53;;;;;;;2.60;1.52;;;;;;;;;;5075642;28;20049;-58
2023/09/23 05:39:20;;;;;;;6.25;1.85;;;;;;;;;;5076405;28;20060;-58
2023/09/23 05:41:47;;;;;;;2.67;1.20;;;;;;;;;;5075544;28;20521;-59
2023/09/23 05:44:15;;;;;;;3.17;1.27;;;;;;;;;;5075018;28;20506;-58
2023/09/23 05:46:43;;;;;;;3.20;1.80;;;;;;;;;;5074911;28;20052;-59
2023/09/23 05:49:12;;;;;;;2.38;1.50;;;;;;;;;;5074196;28;20382;-59
2023/09/23 05:51:40;;;;;;;3.63;1.60;;;;;;;;;;5074519;28;20061;-59
2023/09/23 05:54:08;;;;;;;3.00;1.45;;;;;;;;;;5094426;28;20056;-58
2023/09/23 05:56:35;;;;;;;3.67;1.70;;;;;;;;;;5095572;28;20067;-58
2023/09/23 05:59:01;;;;;;;5.75;2.20;;;;;;;;;;5095849;28;20052;-59
2023/09/23 06:01:28;;;;;;;2.80;2.05;;;;;;;;;;5092130;28;20488;-58
2023/09/23 06:03:56;;;;;;;3.83;1.70;;;;;;;;;;5094932;28;20063;-59
2023/09/23 06:06:23;;;;;;;2.45;1.90;;;;;;;;;;5095192;28;20052;-58
2023/09/23 06:08:51;;;;;;;5.05;1.73;;;;;;;;;;5080474;28;20052;-59
2023/09/23 06:11:18;;;;;;;5.35;2.20;;;;;;;;;;5095363;28;20052;-59
2023/09/23 06:13:44;;;;;;;3.10;1.52;;;;;;;;;;5093441;28;20093;-59
2023/09/23 06:16:11;;;;;;;4.15;1.80;;;;;;;;;;5094566;28;20400;-58
2023/09/23 06:18:38;;;;;;;2.72;1.55;;;;;;;;;;5080790;28;20481;-59
2023/09/23 06:21:06;;;;;;;5.82;1.55;;;;;;;;;;5074109;28;20055;-58
2023/09/23 06:23:33;;;;;;;4.15;2.00;;;;;;;;;;5073823;28;20095;-59
2023/09/23 06:26:02;;;;;;;4.28;1.75;;;;;;;;;;5073800;28;20053;-59
2023/09/23 06:28:29;;;;;;;2.33;1.60;;;;;;;;;;5087148;28;20048;-59
2023/09/23 06:30:56;;;;;;;2.17;1.75;;;;;;;;;;5087127;28;20052;-60
2023/09/23 06:33:23;;;;;;;2.88;1.60;;;;;;;;;;5079817;28;20060;-59
2023/09/23 06:35:50;;;;;;;2.67;1.70;;;;;;;;;;5082354;28;20044;-59
2023/09/23 06:38:17;;;;;;;3.47;1.58;;;;;;;;;;5077971;28;20494;-59
2023/09/23 06:40:43;;;;;;;3.05;1.55;;;;;;;;;;5083639;28;20070;-59
2023/09/23 06:43:12;;;;;;;5.05;2.33;;;;;;;;;;5081154;28;20063;-59
2023/09/23 06:45:39;;;;;;;3.28;1.83;;;;;;;;;;5075051;28;20051;-59
2023/09/23 06:48:08;;;;;;;3.00;1.88;;;;;;;;;;5073345;28;20485;-59
2023/09/23 06:50:35;;;;;;;5.43;1.83;;;;;;;;;;5072985;28;20048;-59
2023/09/23 06:53:02;;;;;;;2.65;1.30;;;;;;;;;;5076792;28;20059;-59
2023/09/23 06:55:29;;;;;;;4.43;1.40;;;;;;;;;;5080761;28;20044;-59
2023/09/23 06:57:56;;;;;;;2.42;1.45;;;;;;;;;;5086459;28;20049;-59
2023/09/23 07:00:24;;;;;;;1.85;1.20;;;;;;;;;;5074541;28;20071;-59
2023/09/23 07:02:51;;;;;;;3.65;1.90;;;;;;;;;;5079426;28;20053;-59
2023/09/23 07:05:18;;;;;;;3.00;1.65;;;;;;;;;;5074855;28;20056;-59
2023/09/23 07:07:45;;;;;;;3.20;2.10;;;;;;;;;;5076180;28;20049;-59
2023/09/23 07:10:12;;;;;;;2.85;1.73;;;;;;;;;;5079672;28;20482;-59
2023/09/23 07:12:38;;;;;;;2.75;1.48;;;;;;;;;;5075573;28;20446;-58
2023/09/23 07:15:05;;;;;;;3.78;1.60;;;;;;;;;;5072223;28;20049;-59
2023/09/23 07:17:33;;;;;;;3.45;2.00;;;;;;;;;;5082504;28;20052;-59
2023/09/23 07:20:00;;;;;;;2.85;1.58;;;;;;;;;;5074285;28;20478;-60
2023/09/23 07:22:27;;;;;;;4.68;1.50;;;;;;;;;;5082284;28;20049;-59
2023/09/23 07:24:54;;;;;;;2.28;1.52;;;;;;;;;;5078053;28;20043;-59
2023/09/23 07:27:21;;;;;;;3.20;1.88;;;;;;;;;;5073414;28;20500;-58
2023/09/23 07:29:47;;;;;;;2.88;2.15;;;;;;;;;;5072378;28;20048;-59
2023/09/23 07:32:14;;;;;;;4.53;1.92;;;;;;;;;;5083227;28;20055;-59
2023/09/23 07:34:42;;;;;;;2.15;1.40;;;;;;;;;;5093042;28;20047;-59
2023/09/23 07:37:13;;;;;;;3.17;1.98;;;;;;;;;;5079405;28;20059;-59
2023/09/23 07:39:39;;;;;;;3.05;1.92;;;;;;;;;;5078119;28;20044;-59
2023/09/23 07:42:06;;;;;;;10.13;2.08;;;;;;;;;;5073962;28;20501;-60
2023/09/23 07:44:33;;;;;;;2.85;2.17;;;;;;;;;;5076223;28;20056;-59
2023/09/23 07:47:00;;;;;;;2.42;1.50;;;;;;;;;;5080928;28;20052;-59
2023/09/23 07:49:26;;;;;;;2.70;1.30;;;;;;;;;;5074176;28;20059;-58
2023/09/23 07:51:56;;;;;;;3.45;2.17;;;;;;;;;;5085890;28;20048;-59
2023/09/23 07:54:22;;;;;;;4.30;1.95;;;;;;;;;;5072845;28;20060;-59
2023/09/23 07:56:49;;;;;;;2.25;1.73;;;;;;;;;;5072438;28;20057;-60
2023/09/23 07:59:16;;;;;;;1.38;1.05;;;;;;;;;;5080160;28;20052;-59
2023/09/23 08:01:43;;;;;;;2.88;1.60;;;;;;;;;;5072396;28;20060;-59
2023/09/23 08:04:09;;;;;;;2.40;1.50;;;;;;;;;;5077544;28;20051;-59
2023/09/23 08:06:36;;;;;;;3.00;1.70;;;;;;;;;;5078939;28;20067;-59
2023/09/23 08:09:05;;;;;;;2.63;1.27;;;;;;;;;;5080352;28;20051;-59
2023/09/23 08:11:32;;;;;;;2.70;1.38;;;;;;;;;;5086366;28;20048;-59
2023/09/23 08:13:58;;;;;;;2.10;1.23;;;;;;;;;;5073550;28;20059;-59
2023/09/23 08:16:25;;;;;;;7.15;1.30;;;;;;;;;;5072560;28;20048;-59
2023/09/23 08:18:52;;;;;;;2.83;1.65;;;;;;;;;;5077982;28;20481;-58
2023/09/23 08:21:19;;;;;;;2.85;1.40;;;;;;;;;;5092253;28;20397;-59
2023/09/23 08:23:45;;;;;;;7.65;1.58;;;;;;;;;;5081723;28;20052;-58
2023/09/23 08:26:14;;;;;;;2.22;1.23;;;;;;;;;;5083193;28;20484;-58
2023/09/23 08:28:42;;;;;;;1.90;1.00;;;;;;;;;;5071931;28;20040;-58
2023/09/23 08:31:08;;;;;;;1.98;1.30;;;;;;;;;;5072293;28;20612;-58
2023/09/23 08:33:35;;;;;;;2.92;1.25;;;;;;;;;;5072647;28;20401;-59
2023/09/23 08:36:02;;;;;;;1.80;1.13;;;;;;;;;;5072579;28;20056;-59
2023/09/23 08:38:29;;;;;;;1.85;1.23;;;;;;;;;;5072187;28;20059;-59
2023/09/23 08:40:56;;;;;;;2.10;1.05;;;;;;;;;;5072593;28;20068;-59
2023/09/23 08:43:36;;;;;;;4.97;1.30;;;;;;;;;;5072372;28;20068;-59
2023/09/23 08:46:03;;;;;;;2.45;1.40;;;;;;;;;;5072740;28;20052;-58
2023/09/23 08:48:30;;;;;;;2.67;1.20;;;;;;;;;;5072350;28;20068;-59
2023/09/23 08:50:56;;;;;;;4.30;0.93;;;;;;;;;;5072130;28;20052;-58
2023/09/23 08:53:26;;;;;;;3.00;1.25;;;;;;;;;;5073322;28;20496;-58
2023/09/23 08:55:53;;;;;;;1.90;1.13;;;;;;;;;;5089622;28;20138;-58
2023/09/23 08:58:20;;;;;;;3.25;1.10;;;;;;;;;;5071953;28;20052;-58
2023/09/23 09:00:49;;;;;;;3.28;1.88;;;;;;;;;;5071984;28;20421;-59
2023/09/23 09:03:16;;;;;;;2.88;1.75;;;;;;;;;;5072141;28;20063;-57
2023/09/23 09:05:43;;;;;;;2.65;1.45;;;;;;;;;;5072041;28;20056;-59
2023/09/23 09:08:10;;;;;;;1.65;1.10;;;;;;;;;;5072461;28;20048;-60
2023/09/23 09:10:37;;;;;;;2.42;1.23;;;;;;;;;;5072151;28;20055;-59
2023/09/23 09:13:06;;;;;;;3.80;1.25;;;;;;;;;;5072844;28;20421;-59
2023/09/23 09:15:33;;;;;;;;;;;;;;;;;;5086418;28;20052;-60
2023/09/23 09:18:01;;;;;;;5.32;1.58;;;;;;;;;;5076198;28;19928;-59
2023/09/23 09:20:29;;;;;;;2.00;0.90;;;;;;;;;;5072542;28;20406;-60
2023/09/23 09:22:55;;;;;;;2.65;1.20;;;;;;;;;;5072279;28;20058;-59
2023/09/23 09:25:22;;;;;;;2.10;1.00;;;;;;;;;;5072223;28;20059;-59
2023/09/23 09:27:50;;;;;;;6.85;1.58;;;;;;;;;;5073039;28;20057;-59
2023/09/23 09:30:19;;;;;;;4.13;1.30;;;;;;;;;;5072506;28;20056;-61
2023/09/23 09:32:46;;;;;;;1.95;1.08;;;;;;;;;;5074047;28;20048;-62
2023/09/23 09:35:15;;;;;;;1.55;1.10;;;;;;;;;;5089939;28;20056;-60
2023/09/23 09:37:43;;;;;;;2.55;1.10;;;;;;;;;;5072297;28;20048;-61
2023/09/23 09:40:11;;;;;;;3.00;0.97;;;;;;;;;;5075242;28;20045;-61
2023/09/23 09:42:40;;;;;;;2.15;1.27;;;;;;;;;;5075824;28;20491;-61
2023/09/23 09:45:08;;;;;;;1.40;0.90;;;;;;;;;;5082839;28;20063;-61
2023/09/23 09:47:35;;;;;;;2.13;1.50;;;;;;;;;;5075381;28;20057;-60
2023/09/23 09:50:04;;;;;;;1.85;1.17;;;;;;;;;;5075320;28;20048;-61
2023/09/23 09:52:33;;;;;;;2.28;0.90;;;;;;;;;;5075489;28;20052;-60
2023/09/23 09:55:01;;;;;;;2.25;1.23;;;;;;;;;;5076380;28;20056;-62
2023/09/23 09:57:28;;;;;;;2.55;1.13;;;;;;;;;;5080739;28;20056;-61
2023/09/23 09:59:59;;;;;;;1.73;0.93;;;;;;;;;;5078127;28;20055;-61
2023/09/23 10:02:26;;;;;;;1.90;0.80;;;;;;;;;;5081527;28;20052;-61
2023/09/23 10:04:53;;;;;;;2.33;0.65;;;;;;;;;;5076089;28;20056;-60
2023/09/23 10:07:22;;;;;;;1.90;0.93;;;;;;;;;;5075257;28;20504;-60
2023/09/23 10:09:54;;;;;;;1.27;0.60;;;;;;;;;;5074707;28;20041;-61
2023/09/23 10:12:25;;;;;;;1.75;0.63;;;;;;;;;;5080194;28;20843;-60
2023/09/23 10:14:55;;;;;;;4.10;0.98;;;;;;;;;;5077205;28;20409;-60
2023/09/23 10:17:27;;;;;;;1.23;0.55;;;;;;;;;;5082662;28;20052;-61
2023/09/23 10:19:55;;;;;;;1.30;0.70;;;;;;;;;;5083342;28;20044;-60
2023/09/23 10:22:24;;;;;;;1.75;0.60;;;;;;;;;;5095118;28;20056;-60
2023/09/23 10:25:03;;;;;;;1.08;0.60;;;;;;;;;;5083549;28;20063;-60
2023/09/23 10:27:30;;;;;;;1.20;0.60;;;;;;;;;;5074871;28;20056;-60
2023/09/23 10:29:57;;;;;;;1.08;0.60;;;;;;;;;;5078529;28;20044;-60
2023/09/23 10:32:24;;;;;;;2.38;0.70;;;;;;;;;;5095127;28;20047;-59
2023/09/23 10:34:51;;;;;;;1.15;0.65;;;;;;;;;;5095289;28;20052;-60
2023/09/23 10:37:24;;;;;;;1.17;0.40;;;;;;;;;;5078013;28;20063;-60
2023/09/23 10:39:51;;;;;;;1.48;0.50;;;;;;;;;;5074448;28;20055;-60
2023/09/23 10:42:19;;;;;;;0.88;0.47;;;;;;;;;;5074335;28;20528;-60
2023/09/23 10:44:46;;;;;;;1.53;0.57;;;;;;;;;;5074157;28;20387;-59
2023/09/23 10:47:14;;;;;;;1.27;0.50;;;;;;;;;;5074378;28;20490;-59
2023/09/23 10:49:40;;;;;;;1.25;0.60;;;;;;;;;;5073569;28;20045;-60
2023/09/23 10:52:07;;;;;;;1.05;0.70;;;;;;;;;;5073965;28;20063;-60
2023/09/23 10:54:35;;;;;;;1.80;0.80;;;;;;;;;;5079598;28;20053;-59
2023/09/23 10:57:01;;;;;;;0.90;0.60;;;;;;;;;;5074136;28;20064;-60
2023/09/23 10:59:30;;;;;;;1.20;0.60;;;;;;;;;;5074233;28;20052;-59
2023/09/23 11:01:57;;;;;;;4.67;0.67;;;;;;;;;;5086627;28;20052;-59
2023/09/23 11:04:24;;;;;;;1.25;0.70;;;;;;;;;;5094034;28;20469;-60
2023/09/23 11:06:51;;;;;;;0.80;0.50;;;;;;;;;;5093963;28;20389;-59
2023/09/23 11:09:20;;;;;;;2.90;0.50;;;;;;;;;;5089409;28;20064;-60
2023/09/23 11:11:47;;;;;;;0.98;0.55;;;;;;;;;;5092515;28;20056;-60
2023/09/23 11:14:14;;;;;;;1.80;1.20;;;;;;;;;;5094121;28;20052;-59
2023/09/23 11:16:44;;;;;;;1.45;0.68;;;;;;;;;;5093860;28;20474;-59
2023/09/23 11:19:11;;;;;;;1.45;0.50;;;;;;;;;;5091259;28;20056;-59
2023/09/23 11:21:44;;;;;;;3.50;0.60;;;;;;;;;;5093712;28;20075;-59
2023/09/23 11:24:10;;;;;;;1.33;0.68;;;;;;;;;;5092569;28;20060;-59
2023/09/23 11:26:39;;;;;;;1.85;1.02;;;;;;;;;;5073338;28;20052;-60
2023/09/23 11:29:05;;;;;;;1.15;0.65;;;;;;;;;;5073441;28;20056;-59
2023/09/23 11:31:32;;;;;;;1.27;0.75;;;;;;;;;;5073425;28;20048;-60
2023/09/23 11:34:01;;;;;;;1.15;0.57;;;;;;;;;;5073605;28;20057;-60
2023/09/23 11:36:28;;;;;;;1.15;0.55;;;;;;;;;;5073491;28;20055;-59
2023/09/23 11:38:54;;;;;;;0.93;0.55;;;;;;;;;;5073386;28;20048;-61
2023/09/23 11:41:21;;;;;;;1.23;0.60;;;;;;;;;;5073771;28;20071;-59
2023/09/23 11:43:50;;;;;;;1.15;0.55;;;;;;;;;;5072754;28;20057;-59
2023/09/23 11:46:22;;;;;;;5.32;0.57;;;;;;;;;;5073097;28;20048;-59
2023/09/23 11:48:49;;;;;;;1.10;0.57;;;;;;;;;;5073254;28;20056;-59
2023/09/23 11:51:20;;;;;;;1.00;0.40;;;;;;;;;;5074219;28;20055;-59
2023/09/23 11:53:47;;;;;;;1.27;0.50;;;;;;;;;;5072805;28;20094;-59
2023/09/23 11:56:15;;;;;;;0.85;0.45;;;;;;;;;;5073211;28;20056;-59
2023/09/23 11:58:46;;;;;;;1.23;0.60;;;;;;;;;;5072992;28;20059;-59
2023/09/23 12:01:20;;;;;;;1.13;0.60;;;;;;;;;;5088157;28;20048;-60
2023/09/23 12:03:47;;;;;;;1.60;0.47;;;;;;;;;;5093205;28;20074;-59
2023/09/23 12:06:16;;;;;;;0.85;0.50;;;;;;;;;;5082823;28;20053;-59
2023/09/23 12:08:47;;;;;;;0.50;0.40;;;;;;;;;;5073011;28;20052;-59
2023/09/23 12:11:14;;;;;;;1.20;0.80;;;;;;;;;;5072954;28;20045;-59
2023/09/23 12:13:40;;;;;;;0.90;0.40;;;;;;;;;;5072381;28;20052;-60
2023/09/23 12:16:07;;;;;;;0.75;0.50;;;;;;;;;;5072531;28;20044;-59
2023/09/23 12:18:34;;;;;;;0.98;0.60;;;;;;;;;;5072328;28;20509;-59
2023/09/23 12:21:00;;;;;;;1.35;0.40;;;;;;;;;;5072652;28;20051;-59
2023/09/23 12:23:29;;;;;;;1.48;0.50;;;;;;;;;;5072689;28;20056;-59
2023/09/23 12:25:58;;;;;;;1.23;0.50;;;;;;;;;;5072905;28;20059;-59
2023/09/23 12:28:25;;;;;;;;;;;;;;;;;;5073097;28;20059;-59
2023/09/23 12:30:51;;;;;;;1.02;0.68;;;;;;;;;;5072544;28;20373;-59
2023/09/23 12:33:18;;;;;;;0.82;0.50;;;;;;;;;;5072513;28;20412;-58
2023/09/23 12:35:45;;;;;;;1.70;0.88;;;;;;;;;;5072819;28;20489;-59
2023/09/23 12:38:12;;;;;;;1.52;0.47;;;;;;;;;;5072900;28;20063;-59
2023/09/23 12:40:39;;;;;;;3.00;0.40;;;;;;;;;;5072891;28;20040;-58
2023/09/23 12:43:07;;;;;;;2.33;0.88;;;;;;;;;;5072526;28;20060;-60
2023/09/23 12:45:33;;;;;;;1.00;0.53;;;;;;;;;;5077020;28;20044;-59
2023/09/23 12:48:00;;;;;;;0.65;0.40;;;;;;;;;;5092824;28;20486;-59
2023/09/23 12:50:27;;;;;;;3.45;0.63;;;;;;;;;;5092325;28;20052;-59
2023/09/23 12:52:54;;;;;;;1.15;0.57;;;;;;;;;;5092867;28;20052;-58
2023/09/23 12:55:21;;;;;;;1.17;0.82;;;;;;;;;;5087419;28;20060;-59
2023/09/23 12:57:48;;;;;;;0.82;0.47;;;;;;;;;;5072476;28;20071;-59
2023/09/23 13:00:16;;;;;;;1.15;0.52;;;;;;;;;;5072412;28;20048;-59
2023/09/23 13:02:43;;;;;;;1.80;0.70;;;;;;;;;;5072487;28;20053;-59
2023/09/23 13:05:10;;;;;;;0.80;0.50;;;;;;;;;;5074513;28;20478;-58
2023/09/23 13:07:37;;;;;;;1.55;0.30;;;;;;;;;;5092249;28;20059;-60
2023/09/23 13:10:04;;;;;;;0.98;0.55;;;;;;;;;;5088702;28;20056;-59
2023/09/23 13:12:31;;;;;;;0.77;0.45;;;;;;;;;;5075253;28;20044;-59
2023/09/23 13:14:58;;;;;;;1.20;0.60;;;;;;;;;;5075489;28;20398;-59
2023/09/23 13:17:27;;;;;;;1.13;0.50;;;;;;;;;;5096580;28;20473;-59
2023/09/23 13:19:54;;;;;;;1.38;0.70;;;;;;;;;;5095819;28;20052;-59
2023/09/23 13:22:21;;;;;;;1.38;0.57;;;;;;;;;;5096325;28;20048;-59
2023/09/23 13:24:49;;;;;;;1.10;0.60;;;;;;;;;;5095847;28;20051;-59
2023/09/23 13:27:16;;;;;;;1.98;0.82;;;;;;;;;;5076585;28;20491;-59
2023/09/23 13:29:42;;;;;;;1.40;0.50;;;;;;;;;;5075296;28;20355;-58
2023/09/23 13:32:09;;;;;;;1.75;0.60;;;;;;;;;;5075728;28;20052;-59
2023/09/23 13:34:37;;;;;;;2.83;0.60;;;;;;;;;;5075316;28;20059;-59
2023/09/23 13:37:04;;;;;;;1.17;0.50;;;;;;;;;;5093335;28;20056;-59
2023/09/23 13:39:31;;;;;;;1.58;0.60;;;;;;;;;;5095576;28;20130;-59
2023/09/23 13:41:58;;;;;;;1.98;0.77;;;;;;;;;;5083540;28;20047;-59
2023/09/23 13:44:24;;;;;;;1.20;0.40;;;;;;;;;;5075274;28;20056;-60
2023/09/23 13:46:51;;;;;;;4.25;0.35;;;;;;;;;;5075329;28;20055;-58
2023/09/23 13:49:18;;;;;;;1.80;0.80;;;;;;;;;;5075707;28;20434;-58
2023/09/23 13:51:46;;;;;;;2.00;1.00;;;;;;;;;;5075453;28;20055;-59
2023/09/23 13:54:13;;;;;;;2.05;0.80;;;;;;;;;;5075397;28;20477;-59
2023/09/23 13:56:40;;;;;;;1.38;0.55;;;;;;;;;;5075139;28;20573;-58
2023/09/23 13:59:06;;;;;;;1.95;0.80;;;;;;;;;;5075137;28;20063;-58
2023/09/23 14:01:33;;;;;;;1.38;0.80;;;;;;;;;;5075351;28;20442;-59
2023/09/23 14:04:00;;;;;;;1.38;0.70;;;;;;;;;;5074746;28;20067;-58
2023/09/23 14:06:27;;;;;;;3.20;0.73;;;;;;;;;;5093208;28;20051;-59
2023/09/23 14:08:55;;;;;;;1.25;0.50;;;;;;;;;;5094058;28;20397;-59
2023/09/23 14:11:22;;;;;;;1.48;0.68;;;;;;;;;;5088172;28;20071;-58
2023/09/23 14:13:48;;;;;;;1.75;0.52;;;;;;;;;;5075170;28;20063;-59
2023/09/23 14:16:15;;;;;;;0.68;0.50;;;;;;;;;;5075039;28;20060;-59
2023/09/23 14:18:42;;;;;;;1.15;0.90;;;;;;;;;;5075133;28;20056;-59
2023/09/23 14:21:09;;;;;;;0.55;0.30;;;;;;;;;;5074605;28;20048;-59
2023/09/23 14:23:36;;;;;;;1.00;0.65;;;;;;;;;;5077078;28;20071;-59
2023/09/23 14:26:04;;;;;;;0.90;0.50;;;;;;;;;;5086492;28;20050;-59
2023/09/23 14:28:31;;;;;;;0.93;0.60;;;;;;;;;;5073302;28;20044;-59
2023/09/23 14:30:58;;;;;;;1.98;0.70;;;;;;;;;;5073248;28;20048;-60
2023/09/23 14:33:24;;;;;;;2.25;0.60;;;;;;;;;;5072750;28;20055;-61
2023/09/23 14:35:52;;;;;;;2.58;0.60;;;;;;;;;;5069897;28;20044;-60
2023/09/23 14:38:19;;;;;;;1.95;0.77;;;;;;;;;;5077772;28;20044;-59
2023/09/23 14:40:46;;;;;;;1.23;0.70;;;;;;;;;;5074293;28;20055;-59
2023/09/23 14:43:14;;;;;;;1.30;0.60;;;;;;;;;;5077909;28;20048;-59
2023/09/23 14:45:41;;;;;;;3.03;0.82;;;;;;;;;;5087147;28;20048;-60
2023/09/23 14:48:07;;;;;;;1.50;0.65;;;;;;;;;;5074590;28;20052;-60